Latest Coastal Weather Observations for Ulladulla

IDN60701

Issued at 5:25 pm EST Tuesday 2 September 2014 (issued every 10 minutes, with the page automatically refreshed every 10 minutes)

About coastal observations | Map of coastal stations | Coastal observations for NSW | Marine services | Other Formats
Station Details ID: 069138 Name: ULLADULLA AWS Lat: -35.36 Lon: 150.48 Height: 35.7 m
Data from the previous 72 hours. | See also: Recent months at Ulladulla
Date/Time
EST
Temp

°C
Wind Pressure Rain
since 9am
mm
Weather Cloud Vis
km
Sea
Height
m
Swell
Dir
 
Speed
knots
Gust
knots
hPa Trend Height
m
Period
s
Dir
02/05:00pm 9.8 SW 14 22 1010.3 - 0.0 - - - - - - -
02/04:30pm 11.8 SSW 15 22 1009.9 - 0.0 - - - - - - -
02/04:04pm 13.4 SSW 16 28 1009.0 - 0.0 - - - - - - -
02/04:00pm 13.6 SSW 15 23 1008.9 - 0.0 - - - - - - -
02/03:52pm 13.8 SSW 15 22 1008.8 - 0.0 - - - - - - -
02/03:30pm 13.0 SW 7 10 1008.6 - 0.0 - - - - - - -
02/03:00pm 13.1 SSW 14 21 1008.5 - 0.0 - - - - - - -
02/02:30pm 14.0 S 14 20 1008.4 - 0.0 - - - - - - -
02/02:00pm 15.2 SSW 9 13 1008.2 - 0.0 - - - - - - -
02/01:30pm 14.0 S 7 10 1008.2 - 0.0 - - - - - - -
02/01:00pm 15.8 SSW 7 11 1008.2 - 0.0 - - - - - - -
02/12:30pm 15.2 SSW 6 10 1008.7 - 0.0 - - - - - - -
02/12:00pm 15.1 WSW 4 8 1009.0 - 0.0 - - - - - - -
02/11:30am 14.8 WSW 5 9 1009.0 - 0.0 - - - - - - -
02/11:00am 16.8 SW 6 11 1009.1 - 0.0 - - - - - - -
02/10:30am 14.3 W 4 6 1009.5 - 0.0 - - - - - - -
02/10:00am 12.6 WSW 5 11 1010.0 - 0.0 - - - - - - -
02/09:30am 12.0 SW 9 15 1010.3 - 0.0 - - - - - - -
02/09:00am 12.2 SSW 12 19 1010.2 - 0.0 - - - - - - -
02/08:30am 12.6 S 21 30 1009.8 - 0.0 - - - - - - -
02/08:11am 13.2 S 15 27 1009.7 - 0.0 - - - - - - -
02/08:00am 13.5 W 3 6 1009.5 - 0.0 - - - - - - -
02/07:30am 13.5 W 5 8 1008.9 - 0.0 - - - - - - -
02/07:00am 13.3 W 5 8 1008.2 - 0.0 - - - - - - -
02/06:30am 12.9 WSW 3 8 1007.9 - 0.0 - - - - - - -
02/06:00am 14.0 W 3 6 1007.6 - 0.0 - - - - - - -
02/05:30am 14.2 SSE 3 7 1007.4 - 0.0 - - - - - - -
02/05:00am 14.1 NW 1 3 1007.1 - 0.0 - - - - - - -
02/04:30am 14.5 NNW 2 3 1007.4 - 0.0 - - - - - - -
02/04:00am 15.4 WNW 5 9 1007.9 - 0.0 - - - - - - -
02/03:30am 15.5 WNW 6 9 1008.0 - 0.0 - - - - - - -
02/03:00am 15.9 WNW 7 12 1008.1 - 0.0 - - - - - - -
02/02:30am 16.4 NW 9 14 1008.2 - 0.0 - - - - - - -
02/02:00am 16.9 WNW 7 12 1008.5 - 0.0 - - - - - - -
02/01:30am 17.4 NW 6 12 1008.4 - 0.0 - - - - - - -
02/01:00am 16.0 NNW 3 5 1008.4 - 0.0 - - - - - - -
02/12:30am 16.0 NNW 3 4 1008.5 - 0.0 - - - - - - -
02/12:00am 16.5 NNW 5 6 1008.5 - 0.0 - - - - - - -
 
Date/Time
EST
Temp

°C
Wind Pressure Rain
since 9am
mm
Weather Cloud Vis
km
Sea
Height
m
Swell
Dir
 
Speed
knots
Gust
knots
hPa Trend Height
m
Period
s
Dir
01/11:30pm 16.7 N 5 8 1008.5 - 0.0 - - - - - - -
01/11:00pm 16.6 N 3 6 1008.8 - 0.0 - - - - - - -
01/10:30pm 16.5 N 3 5 1009.1 - 0.0 - - - - - - -
01/10:00pm 17.4 N 4 9 1009.3 - 0.0 - - - - - - -
01/09:30pm 17.4 N 3 5 1009.4 - 0.0 - - - - - - -
01/09:00pm 17.8 N 4 6 1009.6 - 0.0 - - - - - - -
01/08:30pm 17.7 N 4 6 1009.7 - 0.0 - - - - - - -
01/08:00pm 17.9 N 4 7 1009.9 - 0.0 - - - - - - -
01/07:30pm 18.2 N 4 5 1010.1 - 0.0 - - - - - - -
01/07:00pm 18.1 NNW 3 5 1010.0 - 0.0 - - - - - - -
01/06:30pm 18.5 NNW 4 6 1009.9 - 0.0 - - - - - - -
01/06:00pm 19.0 NNW 3 6 1009.7 - 0.0 - - - - - - -
01/05:30pm 19.1 NNW 4 7 1009.6 - 0.0 - - - - - - -
01/05:00pm 19.5 N 3 7 1009.5 - 0.0 - - - - - - -
01/04:30pm 19.6 NNW 3 9 1009.4 - 0.0 - - - - - - -
01/04:00pm 20.0 N 2 4 1009.3 - 0.0 - - - - - - -
01/03:30pm 20.6 NNW 3 6 1009.3 - 0.0 - - - - - - -
01/03:00pm 20.9 NNE 1 3 1009.3 - 0.0 - - - - - - -
01/02:30pm 21.3 ENE 1 2 1009.7 - 0.0 - - - - - - -
01/02:00pm 21.9 NNW 3 8 1010.0 - 0.0 - - - - - - -
01/01:30pm 21.6 NW 4 7 1010.5 - 0.0 - - - - - - -
01/01:00pm 21.5 NW 9 13 1010.9 - 0.0 - - - - - - -
01/12:30pm 21.8 NW 9 13 1011.3 - 0.0 - - - - - - -
01/12:00pm 21.3 ENE 2 7 1011.8 - 0.0 - - - - - - -
01/11:30am 20.1 ENE 3 5 1012.3 - 0.0 - - - - - - -
01/11:00am 19.8 NE 2 5 1012.8 - 0.0 - - - - - - -
01/10:30am 20.2 WNW 3 8 1013.1 - 0.0 - - - - - - -
01/10:00am 18.9 NW 8 14 1013.5 - 0.0 - - - - - - -
01/09:30am 17.5 NW 5 10 1014.0 - 0.0 - - - - - - -
01/09:00am 17.7 NW 5 8 1014.4 - 0.0 - - - - - - -
01/08:30am 16.6 NW 5 11 1014.5 - 0.0 - - - - - - -
01/08:00am 13.8 NNW 4 9 1014.6 - 0.0 - - - - - - -
01/07:30am 12.1 NNW 2 4 1014.5 - 0.0 - - - - - - -
01/07:00am 11.4 NW 2 4 1014.5 - 0.0 - - - - - - -
01/06:30am 10.3 NW 3 6 1014.4 - 0.0 - - - - - - -
01/06:00am 10.3 NW 3 4 1014.3 - 0.0 - - - - - - -
01/05:30am 10.9 N 3 5 1014.1 - 0.0 - - - - - - -
01/05:00am 11.4 N 3 5 1014.1 - 0.0 - - - - - - -
01/04:30am 12.6 NW 4 7 1014.1 - 0.0 - - - - - - -
01/04:00am 12.6 NW 4 5 1014.0 - 0.0 - - - - - - -
01/03:30am 10.9 NNW 3 4 1014.2 - 0.0 - - - - - - -
01/03:00am 10.2 N 4 4 1014.4 - 0.0 - - - - - - -
01/02:30am 9.1 N 4 5 1014.6 - 0.0 - - - - - - -
01/02:00am 9.4 NNW 2 3 1015.0 - 0.0 - - - - - - -
01/01:30am 10.3 N 4 5 1015.5 - 0.0 - - - - - - -
01/01:00am 9.9 N 4 5 1015.8 - 0.0 - - - - - - -
01/12:30am 11.4 NNW 4 4 1016.1 - 0.0 - - - - - - -
01/12:00am 11.7 N 4 5 1016.3 - 0.0 - - - - - - -
 
Date/Time
EST
Temp

°C
Wind Pressure Rain
since 9am
mm
Weather Cloud Vis
km
Sea
Height
m
Swell
Dir
 
Speed
knots
Gust
knots
hPa Trend Height
m
Period
s
Dir
31/11:30pm 11.7 NNW 4 5 1016.6 - 0.0 - - - - - - -
31/11:00pm 11.9 NNW 4 4 1016.7 - 0.0 - - - - - - -
31/10:30pm 12.4 N 3 4 1017.1 - 0.0 - - - - - - -
31/10:00pm 13.3 N 3 5 1017.4 - 0.0 - - - - - - -
31/09:30pm 13.5 N 3 5 1017.4 - 0.0 - - - - - - -
31/09:00pm 13.5 NNW 3 5 1017.6 - 0.0 - - - - - - -
31/08:30pm 14.0 N 5 6 1017.5 - 0.0 - - - - - - -
31/08:00pm 14.2 N 4 6 1017.5 - 0.0 - - - - - - -
31/07:30pm 14.7 N 4 6 1017.6 - 0.0 - - - - - - -
31/07:00pm 15.2 N 5 8 1017.4 - 0.0 - - - - - - -
31/06:30pm 15.5 NE 4 7 1017.2 - 0.0 - - - - - - -
31/06:00pm 15.5 NE 4 7 1017.2 - 0.0 - - - - - - -
31/05:30pm 15.7 NE 5 7 1016.8 - 0.0 - - - - - - -
31/05:00pm 16.0 NNE 5 6 1016.7 - 0.0 - - - - - - -
31/04:30pm 16.5 NE 3 5 1016.6 - 0.0 - - - - - - -
31/04:00pm 16.5 NNE 5 7 1016.6 - 0.0 - - - - - - -
31/03:30pm 16.9 ENE 4 6 1016.9 - 0.0 - - - - - - -
31/03:00pm 16.9 ENE 4 6 1017.1 - 0.0 - - - - - - -
31/02:30pm 17.1 ENE 4 6 1017.4 - 0.0 - - - - - - -
31/02:00pm 17.0 ENE 4 7 1017.6 - 0.0 - - - - - - -
31/01:30pm 16.6 ENE 4 6 1018.0 - 0.0 - - - - - - -
31/01:00pm 16.9 E 4 6 1018.4 - 0.0 - - - - - - -
31/12:30pm 16.8 E 5 6 1018.8 - 0.0 - - - - - - -
31/12:00pm 16.8 E 5 7 1019.2 - 0.0 - - - - - - -
31/11:30am 17.4 ESE 4 6 1019.7 - 0.0 - - - - - - -
31/11:00am 16.9 SE 4 5 1020.2 - 0.0 - - - - - - -
31/10:30am 16.7 SE 3 6 1020.5 - 0.0 - - - - - - -
31/10:00am 16.0 SSE 4 5 1020.6 - 0.0 - - - - - - -
31/09:30am 16.2 S 4 5 1020.8 - 0.0 - - - - - - -
31/09:00am 16.1 SSW 3 4 1021.0 - 0.0 - - - - - - -
31/08:30am 15.6 WSW 3 5 1021.0 - 0.0 - - - - - - -
31/08:00am 14.9 W 4 6 1021.0 - 0.0 - - - - - - -
31/07:30am 13.8 W 4 5 1020.8 - 0.0 - - - - - - -
31/07:00am 11.6 W 4 6 1020.7 - 0.0 - - - - - - -
31/06:30am 10.4 W 4 5 1020.6 - 0.0 - - - - - - -
31/06:00am 10.5 W 4 6 1020.5 - 0.0 - - - - - - -
31/05:30am 10.8 W 5 6 1020.5 - 0.0 - - - - - - -
31/05:00am 11.1 WSW 4 6 1020.6 - 0.0 - - - - - - -
31/04:30am 11.4 WSW 5 7 1020.6 - 0.0 - - - - - - -
31/04:00am 11.3 WSW 5 8 1020.6 - 0.0 - - - - - - -
31/03:30am 11.5 WSW 5 8 1020.7 - 0.0 - - - - - - -
31/03:00am 11.5 WSW 5 8 1020.9 - 0.0 - - - - - - -
31/02:30am 11.8 WSW 5 9 1021.1 - 0.0 - - - - - - -
31/02:00am 11.8 WSW 6 9 1021.2 - 0.0 - - - - - - -
31/01:30am 11.8 WSW 6 9 1021.6 - 0.0 - - - - - - -
31/01:00am 12.2 WSW 6 8 1021.9 - 0.0 - - - - - - -
31/12:30am 12.2 WSW 6 9 1022.1 - 0.0 - - - - - - -
31/12:00am 12.4 WSW 5 9 1022.3 - 0.0 - - - - - - -
 
Date/Time
EST
Temp

°C
Wind Pressure Rain
since 9am
mm
Weather Cloud Vis
km
Sea
Height
m
Swell
Dir
 
Speed
knots
Gust
knots
hPa Trend Height
m
Period
s
Dir
30/11:30pm 12.7 WSW 5 8 1022.5 - 0.0 - - - - - - -
30/11:00pm 12.1 WSW 4 6 1022.7 - 0.0 - - - - - - -
30/10:30pm 12.2 WSW 5 8 1022.9 - 0.0 - - - - - - -
30/10:00pm 12.5 WSW 5 7 1023.2 - 0.0 - - - - - - -
30/09:30pm 12.8 WSW 5 8 1023.3 - 0.0 - - - - - - -
30/09:00pm 13.1 SW 5 7 1023.4 - 0.0 - - - - - - -
30/08:30pm 13.5 SW 6 9 1023.5 - 0.0 - - - - - - -
30/08:00pm 14.1 SSW 7 12 1023.4 - 0.0 - - - - - - -
30/07:30pm 14.4 SSW 9 13 1023.3 - 0.0 - - - - - - -
30/07:00pm 14.3 SW 8 12 1023.2 - 0.0 - - - - - - -
30/06:30pm 14.7 SW 8 11 1023.0 - 0.0 - - - - - - -
30/06:00pm 15.0 SSW 11 17 1022.9 - 0.0 - - - - - - -
30/05:30pm 14.9 S 11 17 1022.9 - 0.0 - - - - - - -

Other Formats:

Comma delimited format used in spreadsheet applications
http://www.bom.gov.au/fwo/IDN60701/IDN60701.94938.axf

JavaScript Object Notation format (JSON) in row-major order
http://www.bom.gov.au/fwo/IDN60701/IDN60701.94938.json